LVLRG RJDU-RJFE
Flight info
| Callsign | LVLRG |
|---|---|
| Flight time | 0h 24m |
| Altitude | 6000 |
| Route | FUE |
| Aircraft | B350/L-SDF/C |
Departure
| Time | 2026-04-22 23:53 |
|---|---|
| Airport | JMSDF Omura Air Base (RJDU) |
Arrival
| Time | 2026-04-23 00:18 |
|---|---|
| Airport | Fukue Airport (RJFE) |
| Time | Latitude | Longitude | Altitude | Speed | Heading |
|---|---|---|---|---|---|
| 2026-04-22 23:39 | 32.93285 | 129.93525 | 21 ft | 0 kts | 136° |
| 2026-04-22 23:51 | 32.93282 | 129.93516 | 21 ft | 6 kts | 317° |
| 2026-04-22 23:51 | 32.93298 | 129.93441 | 20 ft | 0 kts | 266° |
| 2026-04-22 23:52 | 32.93297 | 129.93431 | 20 ft | 6 kts | 266° |
| 2026-04-22 23:52 | 32.93309 | 129.93373 | 21 ft | 8 kts | 340° |
| 2026-04-22 23:52 | 32.93379 | 129.93376 | 21 ft | 12 kts | 348° |
| 2026-04-22 23:52 | 32.93381 | 129.93363 | 21 ft | 4 kts | 149° |
| 2026-04-22 23:53 | 32.93365 | 129.93367 | 22 ft | 0 kts | 173° |
| 2026-04-22 23:53 | 32.93178 | 129.93386 | 19 ft | 68 kts | 175° |
| 2026-04-22 23:53 | 32.92496 | 129.93445 | 52 ft | 122 kts | 174° |
| 2026-04-22 23:54 | 32.91630 | 129.93542 | 523 ft | 130 kts | 173° |
| 2026-04-22 23:54 | 32.90658 | 129.93708 | 772 ft | 155 kts | 175° |
| 2026-04-22 23:54 | 32.89516 | 129.93461 | 959 ft | 176 kts | 206° |
| 2026-04-22 23:54 | 32.88606 | 129.92510 | 1469 ft | 178 kts | 238° |
| 2026-04-22 23:55 | 32.88222 | 129.91109 | 1919 ft | 180 kts | 266° |
| 2026-04-22 23:55 | 32.88190 | 129.89661 | 2557 ft | 172 kts | 268° |
| 2026-04-22 23:55 | 32.88155 | 129.88230 | 3035 ft | 176 kts | 264° |
| 2026-04-22 23:55 | 32.87871 | 129.86842 | 3478 ft | 175 kts | 245° |
| 2026-04-22 23:56 | 32.87405 | 129.85531 | 4139 ft | 166 kts | 244° |
| 2026-04-22 23:56 | 32.86914 | 129.84279 | 4532 ft | 173 kts | 238° |
| 2026-04-22 23:56 | 32.86234 | 129.83054 | 4938 ft | 175 kts | 234° |
| 2026-04-22 23:56 | 32.85538 | 129.81886 | 5470 ft | 172 kts | 234° |
| 2026-04-22 23:57 | 32.84818 | 129.80731 | 5894 ft | 177 kts | 236° |
| 2026-04-22 23:57 | 32.84167 | 129.79453 | 6018 ft | 194 kts | 242° |
| 2026-04-22 23:57 | 32.83479 | 129.77938 | 5976 ft | 213 kts | 242° |
| 2026-04-22 23:57 | 32.82796 | 129.76369 | 6077 ft | 221 kts | 243° |
| 2026-04-22 23:58 | 32.82097 | 129.74734 | 6364 ft | 220 kts | 243° |
| 2026-04-22 23:58 | 32.81382 | 129.73146 | 6758 ft | 214 kts | 241° |
| 2026-04-22 23:58 | 32.80674 | 129.71611 | 7148 ft | 211 kts | 242° |
| 2026-04-22 23:58 | 32.79978 | 129.70070 | 7476 ft | 211 kts | 242° |
| 2026-04-22 23:59 | 32.79281 | 129.68543 | 7867 ft | 209 kts | 242° |
| 2026-04-22 23:59 | 32.78585 | 129.66981 | 7945 ft | 221 kts | 243° |
| 2026-04-22 23:59 | 32.77879 | 129.65290 | 7911 ft | 233 kts | 249° |
| 2026-04-22 23:59 | 32.77681 | 129.63368 | 7940 ft | 242 kts | 278° |
| 2026-04-23 00:00 | 32.79320 | 129.59764 | 8037 ft | 253 kts | 300° |
| 2026-04-23 00:00 | 32.79966 | 129.58609 | 8037 ft | 253 kts | 300° |
| 2026-04-23 00:00 | 32.81348 | 129.56289 | 7910 ft | 259 kts | 302° |
| 2026-04-23 00:01 | 32.82203 | 129.54440 | 7981 ft | 252 kts | 289° |
| 2026-04-23 00:01 | 32.82541 | 129.52422 | 7990 ft | 249 kts | 266° |
| 2026-04-23 00:01 | 32.82165 | 129.50444 | 8038 ft | 246 kts | 252° |
| 2026-04-23 00:01 | 32.81658 | 129.48501 | 8081 ft | 246 kts | 253° |
| 2026-04-23 00:02 | 32.81182 | 129.46535 | 8039 ft | 249 kts | 255° |
| 2026-04-23 00:02 | 32.80666 | 129.44580 | 8087 ft | 247 kts | 251° |
| 2026-04-23 00:02 | 32.80096 | 129.42654 | 8099 ft | 247 kts | 251° |
| 2026-04-23 00:02 | 32.79563 | 129.40714 | 8096 ft | 248 kts | 252° |
| 2026-04-23 00:03 | 32.79020 | 129.38761 | 8046 ft | 250 kts | 252° |
| 2026-04-23 00:03 | 32.78482 | 129.36789 | 8057 ft | 250 kts | 253° |
| 2026-04-23 00:03 | 32.77953 | 129.34822 | 8045 ft | 252 kts | 253° |
| 2026-04-23 00:03 | 32.77447 | 129.32812 | 7978 ft | 254 kts | 254° |
| 2026-04-23 00:04 | 32.76994 | 129.30785 | 7976 ft | 253 kts | 256° |
| 2026-04-23 00:04 | 32.76604 | 129.28749 | 7983 ft | 253 kts | 257° |
| 2026-04-23 00:04 | 32.76214 | 129.26734 | 7968 ft | 253 kts | 257° |
| 2026-04-23 00:04 | 32.75817 | 129.24704 | 7989 ft | 252 kts | 257° |
| 2026-04-23 00:05 | 32.75421 | 129.22677 | 7984 ft | 252 kts | 257° |
| 2026-04-23 00:05 | 32.75027 | 129.20638 | 7959 ft | 253 kts | 257° |
| 2026-04-23 00:05 | 32.74642 | 129.18598 | 7948 ft | 253 kts | 257° |
| 2026-04-23 00:05 | 32.74269 | 129.16559 | 7943 ft | 253 kts | 258° |
| 2026-04-23 00:06 | 32.73911 | 129.14511 | 7936 ft | 253 kts | 258° |
| 2026-04-23 00:06 | 32.73561 | 129.12466 | 7948 ft | 252 kts | 257° |
| 2026-04-23 00:06 | 32.73156 | 129.10448 | 7942 ft | 252 kts | 256° |
| 2026-04-23 00:06 | 32.72733 | 129.08417 | 7934 ft | 253 kts | 256° |
| 2026-04-23 00:07 | 32.72314 | 129.06412 | 7971 ft | 246 kts | 256° |
| 2026-04-23 00:07 | 32.71890 | 129.04434 | 7692 ft | 249 kts | 256° |
| 2026-04-23 00:07 | 32.71450 | 129.02461 | 7383 ft | 247 kts | 255° |
| 2026-04-23 00:07 | 32.70999 | 129.00472 | 6914 ft | 252 kts | 255° |
| 2026-04-23 00:08 | 32.70551 | 128.98452 | 6498 ft | 254 kts | 256° |
| 2026-04-23 00:08 | 32.70134 | 128.96423 | 6223 ft | 250 kts | 257° |
| 2026-04-23 00:08 | 32.69761 | 128.94418 | 5884 ft | 249 kts | 258° |
| 2026-04-23 00:08 | 32.69344 | 128.92416 | 5430 ft | 253 kts | 253° |
| 2026-04-23 00:09 | 32.68729 | 128.90434 | 4971 ft | 257 kts | 250° |
| 2026-04-23 00:09 | 32.68089 | 128.88463 | 4672 ft | 254 kts | 250° |
| 2026-04-23 00:09 | 32.67485 | 128.86498 | 4372 ft | 253 kts | 252° |
| 2026-04-23 00:09 | 32.66911 | 128.84518 | 3996 ft | 255 kts | 252° |
| 2026-04-23 00:10 | 32.66338 | 128.82525 | 3670 ft | 255 kts | 252° |
| 2026-04-23 00:10 | 32.65852 | 128.81257 | 3439 ft | 258 kts | 240° |
| 2026-04-23 00:10 | 32.64044 | 128.79364 | 3071 ft | 259 kts | 216° |
| 2026-04-23 00:10 | 32.62629 | 128.78113 | 3014 ft | 249 kts | 223° |
| 2026-04-23 00:11 | 32.61837 | 128.77155 | 3007 ft | 242 kts | 229° |
| 2026-04-23 00:11 | 32.60734 | 128.75717 | 3020 ft | 230 kts | 228° |
| 2026-04-23 00:11 | 32.59664 | 128.74344 | 3035 ft | 223 kts | 228° |
| 2026-04-23 00:11 | 32.58611 | 128.73060 | 3070 ft | 212 kts | 227° |
| 2026-04-23 00:12 | 32.57584 | 128.71819 | 2990 ft | 209 kts | 226° |
| 2026-04-23 00:12 | 32.56583 | 128.70605 | 3001 ft | 203 kts | 225° |
| 2026-04-23 00:12 | 32.55575 | 128.69429 | 2977 ft | 204 kts | 219° |
| 2026-04-23 00:12 | 32.54257 | 128.68789 | 2762 ft | 210 kts | 182° |
| 2026-04-23 00:13 | 32.52858 | 128.69157 | 2618 ft | 206 kts | 146° |
| 2026-04-23 00:13 | 32.51980 | 128.70398 | 2523 ft | 193 kts | 99° |
| 2026-04-23 00:13 | 32.52196 | 128.71864 | 2517 ft | 180 kts | 60° |
| 2026-04-23 00:13 | 32.52849 | 128.73109 | 2522 ft | 176 kts | 54° |
| 2026-04-23 00:14 | 32.53553 | 128.74290 | 2498 ft | 175 kts | 52° |
| 2026-04-23 00:14 | 32.54215 | 128.75500 | 2512 ft | 175 kts | 57° |
| 2026-04-23 00:14 | 32.54960 | 128.76595 | 2542 ft | 169 kts | 39° |
| 2026-04-23 00:14 | 32.55934 | 128.77361 | 2492 ft | 171 kts | 23° |
| 2026-04-23 00:15 | 32.57079 | 128.77849 | 2329 ft | 178 kts | 20° |
| 2026-04-23 00:15 | 32.58209 | 128.78321 | 2182 ft | 170 kts | 23° |
| 2026-04-23 00:15 | 32.59248 | 128.78925 | 1985 ft | 164 kts | 29° |
| 2026-04-23 00:15 | 32.60203 | 128.79550 | 1696 ft | 150 kts | 29° |
| 2026-04-23 00:16 | 32.61072 | 128.80136 | 1457 ft | 137 kts | 27° |
| 2026-04-23 00:16 | 32.61893 | 128.80604 | 1192 ft | 127 kts | 24° |
| 2026-04-23 00:16 | 32.62705 | 128.81053 | 992 ft | 130 kts | 28° |
| 2026-04-23 00:16 | 32.63483 | 128.81592 | 826 ft | 128 kts | 30° |
| 2026-04-23 00:17 | 32.64286 | 128.82020 | 692 ft | 124 kts | 19° |
| 2026-04-23 00:17 | 32.65039 | 128.82367 | 453 ft | 109 kts | 24° |
| 2026-04-23 00:17 | 32.65679 | 128.82737 | 287 ft | 94 kts | 24° |
| 2026-04-23 00:17 | 32.66219 | 128.83043 | 238 ft | 76 kts | 24° |
| 2026-04-23 00:18 | 32.66608 | 128.83257 | 255 ft | 51 kts | 24° |
| 2026-04-23 00:18 | 32.66806 | 128.83373 | 259 ft | 0 kts | 35° |
| 2026-04-23 00:18 | 32.66814 | 128.83381 | 259 ft | 3 kts | 46° |
| 2026-04-23 00:18 | 32.66828 | 128.83415 | 260 ft | 0 kts | 82° |